Time;durP1;ratioP1;P1;durP2;ratioP2;P2;SDS_P1;SDS_P2;PMS_P1;PMS_P2;Temp;Humidity;BMP_temperature;BMP_pressure;BME280_temperature;BME280_humidity;BME280_pressure;Samples;Min_cycle;Max_cycle;Signal;HPM_P1;HPM_P2
2021/11/07 00:07:34;;;;;;;3.50;2.13;;;11.50;99.90;;;;;;4992465;28;20615;-78
2021/11/07 00:10:22;;;;;;;3.70;2.00;;;11.50;99.90;;;;;;4989631;28;20457;-77
2021/11/07 00:12:25;;;;;;;3.57;2.10;;;11.50;99.90;;;;;;4989667;28;20772;-79
2021/11/07 00:14:52;;;;;;;5.10;2.50;;;11.50;99.90;;;;;;4991641;28;20436;-77
2021/11/07 00:17:22;;;;;;;4.23;2.23;;;11.50;99.90;;;;;;4991211;28;20437;-77
2021/11/07 00:19:55;;;;;;;6.60;2.60;;;11.60;99.90;;;;;;4991396;28;20433;-77
2021/11/07 00:25:17;;;;;;;3.00;1.70;;;11.60;99.90;;;;;;4992495;28;20431;-77
2021/11/07 00:27:53;;;;;;;4.10;1.90;;;11.60;99.90;;;;;;4992601;28;20432;-78
2021/11/07 00:37:56;;;;;;;4.17;1.90;;;11.50;99.90;;;;;;5002219;28;20925;-80
2021/11/07 00:40:33;;;;;;;3.90;2.37;;;11.60;99.90;;;;;;5001411;28;20424;-80
2021/11/07 00:51:07;;;;;;;4.87;2.30;;;11.60;99.90;;;;;;5000779;28;20817;-80
2021/11/07 00:56:47;;;;;;;3.40;2.20;;;11.60;99.90;;;;;;4998998;28;20487;-79
2021/11/07 01:01:26;;;;;;;3.83;2.20;;;11.70;99.90;;;;;;4999624;28;20491;-80
2021/11/07 01:03:53;;;;;;;7.83;2.30;;;11.60;99.90;;;;;;4998983;28;20519;-79
2021/11/07 01:06:19;;;;;;;5.87;2.43;;;11.60;99.90;;;;;;4998777;28;20531;-80
2021/11/07 01:08:45;;;;;;;5.23;2.53;;;11.60;99.90;;;;;;4999154;28;20765;-80
2021/11/07 01:11:11;;;;;;;4.50;2.60;;;11.60;99.90;;;;;;4999019;28;20421;-80
2021/11/07 01:13:37;;;;;;;6.70;2.50;;;11.60;99.90;;;;;;4998693;28;20432;-80
2021/11/07 01:16:04;;;;;;;4.37;2.30;;;11.60;99.90;;;;;;4998741;28;20451;-80
2021/11/07 01:18:30;;;;;;;5.57;2.33;;;11.60;99.90;;;;;;4998057;28;20452;-80
2021/11/07 01:20:56;;;;;;;3.73;1.90;;;11.60;99.90;;;;;;4997889;28;20424;-80
2021/11/07 01:25:57;;;;;;;3.97;2.10;;;11.60;99.90;;;;;;5000327;28;20850;-80
2021/11/07 01:28:24;;;;;;;3.57;2.00;;;11.60;99.90;;;;;;4999005;28;20451;-80
2021/11/07 01:30:55;;;;;;;4.33;1.90;;;11.60;99.90;;;;;;4998663;28;20444;-80
2021/11/07 01:33:26;;;;;;;6.90;2.73;;;11.60;99.90;;;;;;4998567;28;20805;-80
2021/11/07 01:38:41;;;;;;;4.93;2.20;;;11.50;99.90;;;;;;4999830;28;20455;-80
2021/11/07 01:43:44;;;;;;;4.53;2.30;;;11.50;99.90;;;;;;4999623;28;20427;-80
2021/11/07 01:48:45;;;;;;;3.93;2.43;;;11.40;99.90;;;;;;4999975;28;20528;-80
2021/11/07 01:51:12;;;;;;;5.10;1.90;;;11.40;99.90;;;;;;4998683;28;20563;-80
2021/11/07 01:53:39;;;;;;;7.33;2.77;;;11.40;99.90;;;;;;4998281;28;20436;-80
2021/11/07 01:56:09;;;;;;;4.60;2.77;;;11.30;99.90;;;;;;4997960;28;20449;-80
2021/11/07 01:58:36;;;;;;;3.40;2.20;;;11.40;99.90;;;;;;4997989;28;20432;-80
2021/11/07 02:01:02;;;;;;;4.53;2.53;;;11.30;99.90;;;;;;4998105;28;20520;-79
2021/11/07 02:03:28;;;;;;;3.93;2.33;;;11.30;99.90;;;;;;4998262;28;20448;-80
2021/11/07 02:05:54;;;;;;;6.40;2.87;;;11.20;99.90;;;;;;4997437;28;20473;-80
2021/11/07 02:08:22;;;;;;;4.10;2.50;;;11.20;99.90;;;;;;4996460;28;20435;-78
2021/11/07 02:10:50;;;;;;;4.83;2.83;;;11.10;99.90;;;;;;4995135;28;20208;-80
2021/11/07 02:13:16;;;;;;;3.50;2.27;;;11.00;99.90;;;;;;4997554;28;20935;-79
2021/11/07 02:15:42;;;;;;;6.20;2.93;;;10.90;99.90;;;;;;4997598;28;20540;-80
2021/11/07 02:18:09;;;;;;;3.43;2.47;;;10.90;99.90;;;;;;4997646;28;20503;-80
2021/11/07 02:20:41;;;;;;;4.53;2.73;;;10.80;99.90;;;;;;4997785;28;20464;-79
2021/11/07 02:23:15;;;;;;;4.47;2.70;;;10.80;99.90;;;;;;4997390;28;20542;-80
2021/11/07 02:25:46;;;;;;;5.83;2.43;;;10.70;99.90;;;;;;4997730;28;20479;-80
2021/11/07 02:28:27;;;;;;;5.23;2.60;;;10.60;99.90;;;;;;4998439;28;20953;-80
2021/11/07 02:30:53;;;;;;;4.70;2.70;;;10.50;99.90;;;;;;4997606;28;20452;-80
2021/11/07 02:33:19;;;;;;;5.80;2.67;;;10.50;99.90;;;;;;4996811;28;20421;-80
2021/11/07 02:35:45;;;;;;;4.00;2.90;;;10.50;99.90;;;;;;4997268;28;20436;-80
2021/11/07 02:38:11;;;;;;;3.90;2.33;;;10.40;99.90;;;;;;4996722;28;20421;-79
2021/11/07 02:40:37;;;;;;;5.43;2.83;;;10.40;99.90;;;;;;4997337;28;20507;-80
2021/11/07 02:43:03;;;;;;;5.70;3.00;;;10.30;99.90;;;;;;4996911;28;20424;-79
2021/11/07 02:45:29;;;;;;;4.40;2.87;;;10.30;99.90;;;;;;4996418;28;20202;-79
2021/11/07 02:47:56;;;;;;;8.53;3.30;;;10.30;99.90;;;;;;4996334;28;20431;-80
2021/11/07 02:50:22;;;;;;;3.90;2.67;;;10.20;99.90;;;;;;4996428;28;20421;-79
2021/11/07 02:52:49;;;;;;;4.73;3.33;;;10.30;99.90;;;;;;4996359;28;20421;-80
2021/11/07 02:55:16;;;;;;;5.60;3.13;;;10.30;99.90;;;;;;4996506;28;20440;-80
2021/11/07 02:57:44;;;;;;;6.93;3.23;;;10.30;99.90;;;;;;4996972;28;20417;-80
2021/11/07 03:00:11;;;;;;;5.17;3.43;;;10.30;99.90;;;;;;4996761;28;20431;-80
2021/11/07 03:02:37;;;;;;;6.53;3.67;;;10.30;99.90;;;;;;4996527;28;20428;-80
2021/11/07 03:05:10;;;;;;;7.83;2.77;;;10.40;99.90;;;;;;4997151;28;20439;-80
2021/11/07 03:07:35;;;;;;;5.43;2.93;;;10.40;99.90;;;;;;4996480;28;20536;-80
2021/11/07 03:10:04;;;;;;;4.90;2.60;;;10.40;99.90;;;;;;4996609;28;20457;-80
2021/11/07 03:12:29;;;;;;;6.27;3.50;;;10.40;99.90;;;;;;4996169;28;20430;-80
2021/11/07 03:14:55;;;;;;;5.37;3.03;;;10.50;99.90;;;;;;4996723;28;20429;-80
2021/11/07 03:17:24;;;;;;;4.27;2.97;;;10.50;99.90;;;;;;4996586;28;20233;-80
2021/11/07 03:19:50;;;;;;;5.63;3.60;;;10.40;99.90;;;;;;4996917;28;20196;-80
2021/11/07 03:22:20;;;;;;;5.07;3.13;;;10.50;99.90;;;;;;4996982;28;20431;-80
2021/11/07 03:24:52;;;;;;;4.13;2.57;;;10.50;99.90;;;;;;4997041;28;20413;-80
2021/11/07 03:27:35;;;;;;;4.63;2.73;;;10.50;99.90;;;;;;4996580;28;21033;-80
2021/11/07 03:30:06;;;;;;;4.30;3.00;;;10.60;99.90;;;;;;4996993;28;20421;-80
2021/11/07 03:32:36;;;;;;;4.30;2.57;;;10.50;99.90;;;;;;4995837;28;20429;-80
2021/11/07 03:35:04;;;;;;;3.57;2.37;;;10.60;99.90;;;;;;4996733;28;20916;-80
2021/11/07 03:37:36;;;;;;;4.63;2.37;;;10.70;99.90;;;;;;4996501;28;20811;-80
2021/11/07 03:40:07;;;;;;;4.47;2.30;;;10.70;99.90;;;;;;4996101;28;20512;-80
2021/11/07 03:42:33;;;;;;;3.73;2.43;;;10.70;99.90;;;;;;4995492;28;20528;-80
2021/11/07 03:44:59;;;;;;;4.03;2.77;;;10.70;99.90;;;;;;4995364;28;20443;-80
2021/11/07 03:47:26;;;;;;;5.17;2.53;;;10.70;99.90;;;;;;4995316;28;20475;-80
2021/11/07 03:49:53;;;;;;;3.80;2.33;;;10.70;99.90;;;;;;4995360;28;21006;-79
2021/11/07 03:52:19;;;;;;;5.60;2.90;;;10.60;99.90;;;;;;4995036;28;20597;-80
2021/11/07 03:54:46;;;;;;;4.40;2.40;;;10.60;99.90;;;;;;4995521;28;20417;-80
2021/11/07 03:57:12;;;;;;;3.90;2.17;;;10.60;99.90;;;;;;4994718;28;20420;-79
2021/11/07 03:59:40;;;;;;;4.40;2.87;;;10.70;99.90;;;;;;4994713;28;20492;-79
2021/11/07 04:02:06;;;;;;;6.10;2.90;;;10.70;99.90;;;;;;4996053;28;20560;-79
2021/11/07 04:04:32;;;;;;;4.60;3.40;;;10.60;99.90;;;;;;4997843;28;20460;-80
2021/11/07 04:06:57;;;;;;;3.53;2.60;;;10.60;99.90;;;;;;4997706;28;20554;-79
2021/11/07 04:09:23;;;;;;;3.30;2.10;;;10.60;99.90;;;;;;4997822;28;20181;-79
2021/11/07 04:11:49;;;;;;;3.87;2.73;;;10.70;99.90;;;;;;4997751;28;20229;-79
2021/11/07 04:14:15;;;;;;;3.90;2.60;;;10.80;99.90;;;;;;4997534;28;20413;-79
2021/11/07 04:19:15;;;;;;;4.90;2.97;;;10.70;99.90;;;;;;4998678;28;20480;-78
2021/11/07 04:21:44;;;;;;;4.33;2.53;;;10.70;99.90;;;;;;4999593;28;20427;-78
2021/11/07 04:24:10;;;;;;;3.40;2.47;;;10.70;99.90;;;;;;4998549;28;20433;-78
2021/11/07 04:26:36;;;;;;;4.23;2.60;;;10.70;99.90;;;;;;4999504;28;20468;-78
2021/11/07 04:29:03;;;;;;;4.43;2.80;;;10.70;99.90;;;;;;4999450;28;20421;-78
2021/11/07 04:31:29;;;;;;;5.60;3.07;;;10.70;99.90;;;;;;4999924;28;20178;-78
2021/11/07 04:33:55;;;;;;;3.53;2.47;;;10.70;99.90;;;;;;5000017;28;20425;-78
2021/11/07 04:36:21;;;;;;;4.33;2.50;;;10.70;99.90;;;;;;4999634;28;20460;-78
2021/11/07 04:38:46;;;;;;;3.87;3.00;;;10.70;99.90;;;;;;5000042;28;20424;-78
2021/11/07 04:41:17;;;;;;;4.40;2.67;;;10.80;99.90;;;;;;5000268;28;20186;-78
2021/11/07 04:43:44;;;;;;;4.50;2.90;;;10.80;99.90;;;;;;4999419;28;20182;-78
2021/11/07 04:46:14;;;;;;;4.70;3.97;;;10.90;99.90;;;;;;4999445;28;20857;-79
2021/11/07 04:48:43;;;;;;;3.50;2.80;;;10.80;99.90;;;;;;4998915;28;20424;-78
2021/11/07 04:51:09;;;;;;;3.90;2.90;;;10.80;99.90;;;;;;4999970;28;20512;-78
2021/11/07 04:53:35;;;;;;;9.70;3.60;;;10.90;99.90;;;;;;4999070;28;20420;-78
2021/11/07 04:56:01;;;;;;;4.93;2.93;;;10.90;99.90;;;;;;4999260;28;20479;-79
2021/11/07 04:58:27;;;;;;;4.60;3.17;;;10.90;99.90;;;;;;4999338;28;20834;-78
2021/11/07 05:00:53;;;;;;;5.20;4.13;;;11.00;99.90;;;;;;4999189;28;20645;-78
2021/11/07 05:03:18;;;;;;;5.07;3.50;;;11.00;99.90;;;;;;4998934;28;20594;-78
2021/11/07 05:05:45;;;;;;;5.20;3.43;;;11.00;99.90;;;;;;4998850;28;20216;-78
2021/11/07 05:08:10;;;;;;;7.33;3.77;;;11.00;99.90;;;;;;4998922;28;20178;-78
2021/11/07 05:10:37;;;;;;;5.33;3.33;;;11.00;99.90;;;;;;4999228;28;20875;-77
2021/11/07 05:13:04;;;;;;;4.10;3.20;;;11.10;99.90;;;;;;4997731;28;20241;-78
2021/11/07 05:15:30;;;;;;;4.70;3.10;;;11.10;99.90;;;;;;4998706;28;20441;-78
2021/11/07 05:17:56;;;;;;;6.37;3.87;;;11.00;99.90;;;;;;4998122;28;20445;-79
2021/11/07 05:20:21;;;;;;;5.13;3.33;;;11.10;99.90;;;;;;4998627;28;20460;-78
2021/11/07 05:22:47;;;;;;;4.80;3.00;;;11.10;99.90;;;;;;4998896;28;20687;-79
2021/11/07 05:25:14;;;;;;;4.70;3.10;;;11.10;99.90;;;;;;4998304;28;20240;-78
2021/11/07 05:27:41;;;;;;;4.70;3.33;;;11.20;99.90;;;;;;4998351;28;20475;-78
2021/11/07 05:30:09;;;;;;;5.70;3.50;;;11.20;99.90;;;;;;4997962;28;20448;-79
2021/11/07 05:32:35;;;;;;;5.23;3.00;;;11.10;99.90;;;;;;4997438;28;20448;-78
2021/11/07 05:35:01;;;;;;;4.80;3.83;;;11.00;99.90;;;;;;4997191;28;20955;-78
2021/11/07 05:37:27;;;;;;;4.73;3.80;;;10.90;99.90;;;;;;4998074;28;20186;-79
2021/11/07 05:39:53;;;;;;;4.90;3.20;;;10.90;99.90;;;;;;4996042;28;20417;-79
2021/11/07 05:42:20;;;;;;;4.80;3.43;;;11.00;99.90;;;;;;4995725;28;20182;-78
2021/11/07 05:44:45;;;;;;;4.10;3.13;;;11.00;99.90;;;;;;4996174;28;20427;-78
2021/11/07 05:47:11;;;;;;;4.60;3.43;;;11.00;99.90;;;;;;4995912;28;20589;-79
2021/11/07 05:49:37;;;;;;;6.33;3.60;;;11.00;99.90;;;;;;4995644;28;20182;-78
2021/11/07 05:52:04;;;;;;;4.10;3.37;;;11.10;99.90;;;;;;4995677;28;20440;-78
2021/11/07 05:54:30;;;;;;;5.10;3.90;;;11.10;99.90;;;;;;4996138;28;20192;-78
2021/11/07 05:56:57;;;;;;;5.30;4.00;;;11.10;99.90;;;;;;4996090;28;20588;-78
2021/11/07 05:59:23;;;;;;;4.60;3.80;;;11.20;99.90;;;;;;4995940;28;20421;-78
2021/11/07 06:01:49;;;;;;;4.47;3.77;;;11.20;99.90;;;;;;4996118;28;20421;-78
2021/11/07 06:04:15;;;;;;;5.70;3.80;;;11.20;99.90;;;;;;4996459;28;20512;-78
2021/11/07 06:06:41;;;;;;;5.03;3.90;;;11.20;99.90;;;;;;4995966;28;20464;-79
2021/11/07 06:09:08;;;;;;;4.90;3.43;;;11.10;99.90;;;;;;4996129;28;20835;-78
2021/11/07 06:11:35;;;;;;;4.97;4.47;;;11.20;99.90;;;;;;4995792;28;20189;-78
2021/11/07 06:14:01;;;;;;;6.03;4.20;;;11.10;99.90;;;;;;4995598;28;20440;-78
2021/11/07 06:16:27;;;;;;;6.00;4.50;;;11.20;99.90;;;;;;4995292;28;20445;-78
2021/11/07 06:18:53;;;;;;;6.90;4.47;;;11.10;99.90;;;;;;4995862;28;20958;-79
2021/11/07 06:21:18;;;;;;;5.33;4.40;;;11.20;99.90;;;;;;4995882;28;20434;-78
2021/11/07 06:23:47;;;;;;;4.57;4.03;;;11.10;99.90;;;;;;4997718;28;20182;-78
2021/11/07 06:26:13;;;;;;;6.77;4.60;;;11.20;99.90;;;;;;4994932;28;20625;-78
2021/11/07 06:28:39;;;;;;;4.97;3.90;;;11.20;99.90;;;;;;4995627;28;20477;-78
2021/11/07 06:31:07;;;;;;;6.03;3.80;;;11.30;99.90;;;;;;4995572;28;20185;-78
2021/11/07 06:33:34;;;;;;;9.00;4.20;;;11.20;99.90;;;;;;4995496;28;20564;-78
2021/11/07 06:35:59;;;;;;;7.17;4.00;;;11.30;99.90;;;;;;4995353;28;20456;-79
2021/11/07 06:38:26;;;;;;;5.17;4.20;;;11.20;99.90;;;;;;4995599;28;20417;-78
2021/11/07 06:40:52;;;;;;;5.10;4.53;;;11.30;99.90;;;;;;4996210;28;20649;-78
2021/11/07 06:43:18;;;;;;;4.80;3.80;;;11.20;99.90;;;;;;4995421;28;20424;-78
2021/11/07 06:45:43;;;;;;;5.17;3.77;;;11.20;99.90;;;;;;4995114;28;20469;-78
2021/11/07 06:48:09;;;;;;;4.83;3.53;;;11.30;99.90;;;;;;4995429;28;20806;-78
2021/11/07 06:50:35;;;;;;;4.50;3.80;;;11.30;99.90;;;;;;4995481;28;20255;-78
2021/11/07 06:53:02;;;;;;;4.20;3.30;;;11.30;99.90;;;;;;4995253;28;20516;-78
2021/11/07 06:55:28;;;;;;;5.63;3.63;;;11.40;99.90;;;;;;4995091;28;20441;-78
2021/11/07 06:57:54;;;;;;;5.83;4.40;;;11.40;99.90;;;;;;4995248;28;20432;-78
2021/11/07 07:00:23;;;;;;;4.53;3.87;;;11.30;99.90;;;;;;4995705;28;20425;-78
2021/11/07 07:02:52;;;;;;;6.50;3.90;;;11.40;99.90;;;;;;4995272;28;20432;-78
2021/11/07 07:05:20;;;;;;;6.97;4.87;;;11.40;99.90;;;;;;4995557;28;21050;-78
2021/11/07 07:07:53;;;;;;;5.80;4.47;;;11.30;99.90;;;;;;4995276;28;20472;-78
2021/11/07 07:10:28;;;;;;;5.77;3.93;;;11.10;99.90;;;;;;4995293;28;20443;-78
2021/11/07 07:15:27;;;;;;;8.10;5.30;;;11.00;99.90;;;;;;4996400;28;20488;-78
2021/11/07 07:20:49;;;;;;;9.73;7.23;;;10.90;99.90;;;;;;4994692;28;20460;-78
2021/11/07 07:31:54;;;;;;;7.83;7.03;;;10.90;99.90;;;;;;4996929;28;20420;-78
2021/11/07 07:34:18;;;;;;;8.97;6.77;;;10.80;99.90;;;;;;4996482;28;20432;-78
2021/11/07 07:36:45;;;;;;;10.03;7.40;;;10.80;99.90;;;;;;4994097;28;20807;-78
2021/11/07 07:39:11;;;;;;;8.60;7.43;;;10.80;99.90;;;;;;4995449;28;20476;-78
2021/11/07 07:41:37;;;;;;;13.27;8.60;;;10.80;99.90;;;;;;4993984;28;20865;-78
2021/11/07 07:44:07;;;;;;;13.00;9.47;;;10.80;99.90;;;;;;4995259;28;21020;-78
2021/11/07 07:46:34;;;;;;;13.90;10.87;;;10.90;99.90;;;;;;4994856;28;20473;-78
2021/11/07 07:49:00;;;;;;;11.83;8.40;;;10.90;99.90;;;;;;4994619;28;20413;-77
2021/11/07 07:51:29;;;;;;;11.20;7.80;;;10.90;99.90;;;;;;4994267;28;20800;-78
2021/11/07 07:54:01;;;;;;;11.43;8.40;;;10.90;99.90;;;;;;4993838;28;20684;-78
2021/11/07 07:56:29;;;;;;;10.87;8.57;;;10.80;99.90;;;;;;4993833;28;20739;-78
2021/11/07 07:58:55;;;;;;;14.67;9.53;;;10.80;99.90;;;;;;4994523;28;20417;-78
2021/11/07 08:01:21;;;;;;;14.63;9.00;;;10.90;99.90;;;;;;4994754;28;20425;-78
2021/11/07 08:03:46;;;;;;;11.47;9.00;;;10.90;99.90;;;;;;4994738;28;20431;-78
2021/11/07 08:06:12;;;;;;;11.97;7.90;;;11.00;99.90;;;;;;4993789;28;20499;-78
2021/11/07 08:08:38;;;;;;;11.00;8.70;;;11.00;99.90;;;;;;4994192;28;20178;-78
2021/11/07 08:11:04;;;;;;;11.70;7.40;;;11.10;99.90;;;;;;4994480;28;20174;-78
2021/11/07 08:13:30;;;;;;;9.90;7.83;;;11.20;99.90;;;;;;4993608;28;20210;-78
2021/11/07 08:15:57;;;;;;;10.47;8.40;;;11.20;99.90;;;;;;4994288;28;20816;-77
2021/11/07 08:18:23;;;;;;;11.40;8.23;;;11.20;99.90;;;;;;4994451;28;20605;-78
2021/11/07 08:20:49;;;;;;;11.03;7.80;;;11.30;99.90;;;;;;4995256;28;20441;-77
2021/11/07 08:23:16;;;;;;;9.10;6.33;;;11.20;99.90;;;;;;4994737;28;20966;-78
2021/11/07 08:25:43;;;;;;;7.50;5.70;;;11.30;99.90;;;;;;4993421;28;20456;-78
2021/11/07 08:28:09;;;;;;;7.73;5.83;;;11.20;99.90;;;;;;4994203;28;20433;-77
2021/11/07 08:30:41;;;;;;;8.83;5.73;;;11.20;99.90;;;;;;4994001;28;20451;-79
2021/11/07 08:33:08;;;;;;;8.90;5.60;;;11.30;99.90;;;;;;4992601;28;20512;-79
2021/11/07 08:35:39;;;;;;;8.63;5.60;;;11.30;99.90;;;;;;4995032;28;20845;-79
2021/11/07 08:38:12;;;;;;;8.10;5.67;;;11.30;99.90;;;;;;4993549;28;20409;-78
2021/11/07 08:40:45;;;;;;;12.80;5.40;;;11.50;99.90;;;;;;4991861;28;20425;-78
2021/11/07 09:02:39;;;;;;;8.50;5.83;;;11.50;99.90;;;;;;4996733;28;20420;-78
2021/11/07 09:05:15;;;;;;;9.53;5.40;;;11.60;99.90;;;;;;4996685;28;20448;-77
2021/11/07 09:07:58;;;;;;;8.70;5.63;;;11.60;99.90;;;;;;4996139;28;20556;-78
2021/11/07 09:10:31;;;;;;;7.80;5.70;;;11.70;99.90;;;;;;4997501;28;20420;-78
2021/11/07 09:12:59;;;;;;;11.87;5.50;;;11.80;99.90;;;;;;4996023;28;20417;-77
2021/11/07 09:15:27;;;;;;;10.13;6.40;;;11.70;99.90;;;;;;4996083;28;20956;-78
2021/11/07 09:17:55;;;;;;;10.83;5.77;;;11.80;99.90;;;;;;4996044;28;20449;-78
2021/11/07 09:20:28;;;;;;;14.30;5.57;;;11.90;99.90;;;;;;4996106;28;20559;-78
2021/11/07 09:25:25;;;;;;;11.20;4.83;;;11.90;99.90;;;;;;4997751;28;20428;-78
2021/11/07 09:30:28;;;;;;;12.77;6.07;;;11.90;99.90;;;;;;4999077;28;20452;-78
2021/11/07 09:40:37;;;;;;;12.03;4.63;;;12.40;99.90;;;;;;4998650;28;20420;-78
2021/11/07 09:43:22;;;;;;;11.70;4.37;;;12.50;99.90;;;;;;4995755;28;20432;-77
2021/11/07 09:45:54;;;;;;;10.17;3.83;;;12.60;99.90;;;;;;4996528;28;20523;-78
2021/11/07 09:48:33;;;;;;;6.70;3.50;;;12.80;99.90;;;;;;4998380;28;20429;-78
2021/11/07 09:50:59;;;;;;;7.50;3.70;;;13.00;99.90;;;;;;4998040;28;20511;-78
2021/11/07 09:53:25;;;;;;;10.90;4.53;;;13.10;99.90;;;;;;4997647;28;20417;-78
2021/11/07 09:55:52;;;;;;;7.20;3.67;;;13.40;99.90;;;;;;4999797;28;20866;-78
2021/11/07 09:58:18;;;;;;;5.23;3.63;;;13.50;99.90;;;;;;4999673;28;20181;-79
2021/11/07 10:00:52;;;;;;;7.27;3.20;;;13.50;99.90;;;;;;4999404;28;20532;-77
2021/11/07 10:03:20;;;;;;;5.90;3.47;;;13.30;99.90;;;;;;4999827;28;20806;-77
2021/11/07 10:05:51;;;;;;;10.40;3.50;;;13.30;99.90;;;;;;4994234;28;20449;-77
2021/11/07 10:08:17;;;;;;;8.63;2.90;;;13.20;99.90;;;;;;4994636;28;20457;-78
2021/11/07 10:13:26;;;;;;;7.43;3.53;;;13.10;99.90;;;;;;4995168;28;20896;-77
2021/11/07 10:16:05;;;;;;;9.40;3.77;;;13.00;99.90;;;;;;4994522;28;20445;-78
2021/11/07 10:18:44;;;;;;;8.50;3.30;;;12.90;99.90;;;;;;4993596;28;20444;-78
2021/11/07 10:21:37;;;;;;;11.67;4.73;;;12.80;99.90;;;;;;4993655;28;20518;-77
2021/11/07 10:24:11;;;;;;;12.60;4.03;;;12.70;99.90;;;;;;4993064;28;20849;-78
2021/11/07 10:26:39;;;;;;;8.43;3.87;;;12.80;99.90;;;;;;4993268;28;20475;-78
2021/11/07 10:29:08;;;;;;;10.70;3.80;;;12.60;99.90;;;;;;4993772;28;20466;-78
2021/11/07 10:31:44;;;;;;;10.63;4.67;;;12.50;99.90;;;;;;4992978;28;20798;-77
2021/11/07 10:45:22;;;;;;;7.07;3.40;;;12.50;99.90;;;;;;4995335;28;20205;-77
2021/11/07 10:53:12;;;;;;;11.10;3.87;;;12.30;99.90;;;;;;4995244;28;20903;-78
2021/11/07 10:55:45;;;;;;;6.80;3.80;;;12.20;99.90;;;;;;4993852;28;20436;-78
2021/11/07 10:58:12;;;;;;;11.50;3.23;;;12.20;99.90;;;;;;4993184;28;20460;-78
2021/11/07 11:00:39;;;;;;;8.00;3.40;;;12.20;99.90;;;;;;4993702;28;20474;-77
2021/11/07 11:03:07;;;;;;;7.87;3.30;;;12.30;99.90;;;;;;4993282;28;20796;-77
2021/11/07 11:06:09;;;;;;;10.07;4.20;;;12.40;99.90;;;;;;4994460;28;20526;-78
2021/11/07 11:08:45;;;;;;;6.10;2.90;;;12.20;99.90;;;;;;4994059;28;20516;-78
2021/11/07 11:24:41;;;;;;;9.33;3.50;;;12.50;99.90;;;;;;4993540;28;20412;-77
2021/11/07 11:32:29;;;;;;;10.27;3.00;;;12.40;99.90;;;;;;4993243;28;20420;-78
2021/11/07 11:35:06;;;;;;;9.90;3.23;;;13.20;99.90;;;;;;4991845;28;20440;-76
2021/11/07 11:43:02;;;;;;;8.57;2.50;;;20.10;99.90;;;;;;4992417;28;20401;-77
2021/11/07 11:45:32;;;;;;;12.10;2.80;;;20.80;99.90;;;;;;4991277;28;20444;-77
2021/11/07 11:48:10;;;;;;;8.10;2.57;;;20.20;99.90;;;;;;4991663;28;20472;-77
2021/11/07 11:57:01;;;;;;;8.80;3.10;;;16.60;99.90;;;;;;5001458;28;20441;-78
2021/11/07 12:02:43;;;;;;;11.87;2.80;;;15.30;99.90;;;;;;4995438;28;20447;-78
2021/11/07 12:05:27;;;;;;;9.27;3.00;;;14.70;99.90;;;;;;4995131;28;20441;-78
2021/11/07 12:08:17;;;;;;;11.20;3.43;;;14.30;99.90;;;;;;4993437;28;20486;-77
2021/11/07 12:11:01;;;;;;;8.90;3.30;;;13.70;99.90;;;;;;4992700;28;20413;-77
2021/11/07 12:13:28;;;;;;;7.13;3.03;;;13.50;99.90;;;;;;4993564;28;20416;-77
2021/11/07 12:15:58;;;;;;;15.87;4.17;;;13.30;99.90;;;;;;4993965;28;20437;-78
2021/11/07 12:18:25;;;;;;;6.90;4.43;;;13.30;99.90;;;;;;4993318;28;20440;-77
2021/11/07 12:20:57;;;;;;;9.20;4.90;;;13.20;99.90;;;;;;4992776;28;20420;-78
2021/11/07 12:23:30;;;;;;;11.87;3.53;;;13.20;99.90;;;;;;4995954;28;20994;-77
2021/11/07 12:25:57;;;;;;;4.93;2.17;;;13.30;99.90;;;;;;4997602;28;21050;-78
2021/11/07 12:28:44;;;;;;;9.57;2.70;;;13.40;99.90;;;;;;4996713;28;20413;-77
2021/11/07 12:31:10;;;;;;;7.40;3.37;;;13.30;99.90;;;;;;4995754;28;20797;-77
2021/11/07 12:33:56;;;;;;;5.17;2.27;;;13.60;99.90;;;;;;4996246;28;20421;-77
2021/11/07 12:40:28;;;;;;;4.53;2.67;;;15.60;99.90;;;;;;4995907;28;20440;-77
2021/11/07 12:42:17;;;;;;;3.57;2.20;;;15.10;99.90;;;;;;4996935;28;20431;-80
2021/11/07 12:44:53;;;;;;;11.67;4.23;;;15.00;99.90;;;;;;4994516;28;20479;-77
2021/11/07 12:47:27;;;;;;;9.53;3.30;;;15.00;99.90;;;;;;4994314;28;20877;-77
2021/11/07 12:50:06;;;;;;;7.60;2.37;;;14.70;99.90;;;;;;4994307;28;20471;-77
2021/11/07 12:52:51;;;;;;;8.90;3.27;;;14.70;99.90;;;;;;4994138;28;20421;-77
2021/11/07 12:55:29;;;;;;;5.50;2.90;;;14.50;99.90;;;;;;4993919;28;20511;-77
2021/11/07 12:57:55;;;;;;;9.83;3.30;;;14.50;99.90;;;;;;4994261;28;20425;-76
2021/11/07 13:00:21;;;;;;;6.83;2.70;;;14.30;99.90;;;;;;4993990;28;20424;-77
2021/11/07 13:02:47;;;;;;;8.07;3.07;;;14.30;99.90;;;;;;4993722;28;20417;-76
2021/11/07 13:05:18;;;;;;;9.57;3.40;;;14.30;99.90;;;;;;4993728;28;20531;-77
2021/11/07 13:07:55;;;;;;;12.20;3.50;;;14.60;99.90;;;;;;4993844;28;20464;-76
2021/11/07 13:13:18;;;;;;;6.37;2.83;;;14.80;99.90;;;;;;4994952;28;20427;-77
2021/11/07 13:16:38;;;;;;;5.93;2.73;;;14.40;99.90;;;;;;4993612;28;20539;-77
2021/11/07 13:26:43;;;;;;;8.87;2.63;;;14.20;99.90;;;;;;4994657;28;20471;-77
2021/11/07 13:32:00;;;;;;;9.37;2.70;;;14.20;99.90;;;;;;4994512;28;20420;-76
2021/11/07 13:34:27;;;;;;;7.97;2.57;;;14.10;99.90;;;;;;4992745;28;20417;-77
2021/11/07 13:36:55;;;;;;;5.53;2.30;;;14.20;99.90;;;;;;4993132;28;20484;-77
2021/11/07 13:39:34;;;;;;;6.33;2.53;;;14.10;99.90;;;;;;4993480;28;20433;-77
2021/11/07 13:42:12;;;;;;;12.20;2.90;;;14.30;99.90;;;;;;4993204;28;20463;-77
2021/11/07 13:44:58;;;;;;;7.80;3.00;;;14.10;99.90;;;;;;4993143;28;20533;-76
2021/11/07 13:47:43;;;;;;;7.60;3.80;;;13.90;99.90;;;;;;4993092;28;20552;-76
2021/11/07 13:50:15;;;;;;;10.97;3.23;;;13.70;99.90;;;;;;4992971;28;20483;-77
2021/11/07 13:52:43;;;;;;;7.63;3.60;;;13.60;99.90;;;;;;4992898;28;20424;-76
2021/11/07 13:55:14;;;;;;;8.17;3.20;;;13.70;99.90;;;;;;4992955;28;20464;-77
2021/11/07 13:57:40;;;;;;;8.47;2.13;;;13.80;99.90;;;;;;4993006;28;20421;-77
2021/11/07 14:00:12;;;;;;;7.53;2.40;;;13.80;99.90;;;;;;4992839;28;20417;-77
2021/11/07 14:02:46;;;;;;;14.63;3.00;;;13.70;99.90;;;;;;4992757;28;20417;-77
2021/11/07 14:05:12;;;;;;;9.63;2.87;;;13.30;99.90;;;;;;4992659;28;20441;-77
2021/11/07 14:07:40;;;;;;;11.40;2.80;;;13.10;99.90;;;;;;4992693;28;20486;-77
2021/11/07 14:10:10;;;;;;;11.73;2.77;;;13.00;99.90;;;;;;4992753;28;20460;-77
2021/11/07 14:12:36;;;;;;;7.83;2.70;;;12.90;99.90;;;;;;4992330;28;20413;-77
2021/11/07 14:15:29;;;;;;;6.87;2.97;;;12.70;99.90;;;;;;4992489;28;20445;-77
2021/11/07 14:18:07;;;;;;;5.90;2.57;;;12.70;99.90;;;;;;4989724;28;20595;-77
2021/11/07 14:20:49;;;;;;;8.33;2.70;;;12.60;99.90;;;;;;4992523;28;20420;-77
2021/11/07 14:23:29;;;;;;;9.00;3.27;;;12.70;99.90;;;;;;4992145;28;20425;-76
2021/11/07 14:26:08;;;;;;;8.67;3.10;;;12.80;99.90;;;;;;4992209;28;20448;-77
2021/11/07 14:28:53;;;;;;;9.27;2.57;;;12.70;99.90;;;;;;4992426;28;20955;-77
2021/11/07 14:31:24;;;;;;;10.20;2.87;;;12.80;99.90;;;;;;4992206;28;20428;-77
2021/11/07 14:39:06;;;;;;;8.43;3.20;;;13.00;99.90;;;;;;4993577;28;20444;-76
2021/11/07 14:41:43;;;;;;;5.90;2.60;;;12.80;99.90;;;;;;4991913;28;20519;-76
2021/11/07 14:44:27;;;;;;;5.17;2.10;;;12.60;99.90;;;;;;4992055;28;20424;-76
2021/11/07 14:47:11;;;;;;;6.13;2.47;;;12.60;99.90;;;;;;4991032;28;21012;-77
2021/11/07 14:55:03;;;;;;;8.47;2.70;;;12.30;99.90;;;;;;4993106;28;20436;-76
2021/11/07 15:00:06;;;;;;;17.27;3.60;;;12.10;99.90;;;;;;4993140;28;20405;-76
2021/11/07 15:05:50;;;;;;;8.10;2.90;;;11.90;99.90;;;;;;4993165;28;20806;-77
2021/11/07 15:08:28;;;;;;;6.90;4.03;;;11.80;99.90;;;;;;4991718;28;20428;-76
2021/11/07 15:17:13;;;;;;;7.63;2.60;;;11.50;99.90;;;;;;4992845;28;20853;-76
2021/11/07 15:19:23;;;;;;;19.83;4.00;;;11.40;99.90;;;;;;4996077;28;20531;-77
2021/11/07 15:21:57;;;;;;;6.50;2.40;;;11.20;99.90;;;;;;4991221;28;20527;-77
2021/11/07 15:24:28;;;;;;;6.00;2.93;;;11.30;99.90;;;;;;4991468;28;20825;-77
2021/11/07 15:26:58;;;;;;;6.87;3.27;;;11.20;99.90;;;;;;4991155;28;20525;-76
2021/11/07 15:29:34;;;;;;;12.57;2.73;;;11.20;99.90;;;;;;4991450;28;20417;-77
2021/11/07 15:32:08;;;;;;;7.10;3.10;;;11.20;99.90;;;;;;4990967;28;20490;-77
2021/11/07 15:34:37;;;;;;;12.73;3.40;;;11.20;99.90;;;;;;4991339;28;20884;-77
2021/11/07 15:37:05;;;;;;;14.97;4.03;;;11.20;99.90;;;;;;4991175;28;20865;-76
2021/11/07 15:39:33;;;;;;;7.73;3.23;;;11.20;99.90;;;;;;4991272;28;20428;-76
2021/11/07 15:42:03;;;;;;;10.63;3.03;;;11.20;99.90;;;;;;4990946;28;20479;-76
2021/11/07 15:44:36;;;;;;;10.00;2.63;;;11.20;99.90;;;;;;4991187;28;20928;-76
2021/11/07 15:47:03;;;;;;;7.07;3.03;;;11.20;99.90;;;;;;4990961;28;21061;-76
2021/11/07 15:49:34;;;;;;;7.33;2.73;;;11.20;99.90;;;;;;4991164;28;20416;-76
2021/11/07 15:52:38;;;;;;;9.83;2.67;;;11.10;99.90;;;;;;4990973;28;20823;-76
2021/11/07 15:55:16;;;;;;;9.90;3.23;;;11.10;99.90;;;;;;4993114;28;20848;-76
2021/11/07 16:03:14;;;;;;;8.23;2.80;;;10.80;99.90;;;;;;4995926;28;20586;-77
2021/11/07 16:18:46;;;;;;;11.60;3.07;;;10.60;99.90;;;;;;4996180;28;20830;-76